Pekan, Malaysia
Current Conditions -  °F | °C
As of 4:00 PM on Friday 28 Nov 2014 (Local Time) from WMKD Reporting Station
Broken Clouds Broken Clouds  
Wind Chill: 88°   Ceiling: 28000
Heat Index: 100°   Visibility: 6mi
Dew Point: 77°   Wind: 8mph
Humidity: 70%   Direction: 350°N
Pressure: 29.71"   Gusts: NA
Location:  3.5°N, 103.42°E
Report Text: WMKD 280800Z 35007KT 300V050 9999 FEW017CB SCT160 BKN280 31/25 Q1006 NOSIG
Loading
Personal Weather Stations






























Interactive Weather Map New forecast layout! Learn more

10-Day Weather Forecast

Advertisements
Track Severe Weather on mobile